Estación Meteorológica Peña el Pijo (Robertgarden) [ 04/19/21 04:17:59 CEST ]

Fecha Hora Presion(HPa) Temp (°C) Humedad % Rocio (°C) Viento ( m/s) Direccion Lluvia 1Hora(mm) Lluvia 24H(mm) LLuvia Total(mm)
2021-Apr-01 01:09:34 1009.900 8.1 61 1.0 - N     89.61
2021-Apr-01 02:09:27 1009.200 6.6 66 0.7 - N     89.61
2021-Apr-01 03:09:59 1008.700 6.9 64 0.5 - N     89.61
2021-Apr-01 04:09:41 1007.900 7.8 61 0.7 - N     89.61
2021-Apr-01 05:09:40 1007.400 9.5 50 -0.4 - N     89.61
2021-Apr-01 06:09:44 1007.400 9.6 50 -0.3 - N     89.61
2021-Apr-01 07:09:25 1006.500 9.9 50 0.0 - N     89.61
2021-Apr-01 08:09:56 1006.500 10.8 47 -0.1 - N     89.61
2021-Apr-01 09:09:04 1006.800 11.8 50 1.7 - N     89.61
2021-Apr-01 10:09:31 1007.400 11.5 54 2.5 - N     89.61
2021-Apr-01 11:09:40 1007.200 15.9 44 3.6 - N     89.61
2021-Apr-01 12:09:32 1005.900 20.4 35 4.3 - N     89.61
2021-Apr-01 13:09:50 1005.900 23.8 29 4.6 - N     89.61
2021-Apr-01 14:09:47 1005.300 24.8 28 5.0 - N     89.61
2021-Apr-01 15:09:28 1004.900 25.0 28 5.1 - N     89.61
2021-Apr-01 16:09:29 1004.400 24.8 29 5.5 - N     89.61
2021-Apr-01 17:09:24 1004.400 24.1 31 5.9 - N     89.61
2021-Apr-01 18:09:39 1004.700 22.3 32 4.8 - N     89.61
2021-Apr-01 19:09:37 1004.800 19.3 40 5.4 - N     89.61
2021-Apr-01 20:09:32 1005.000 16.8 47 5.4 - N     89.61
2021-Apr-01 21:09:41 1005.500 14.3 54 5.1 - N     89.61
2021-Apr-01 22:09:36 1006.400 11.9 63 5.1 - N     89.61
2021-Apr-01 23:09:50 1006.900 10.4 68 4.8 - N     89.61

Temperatura Máxima:25°    Temperatura Mínima:
Presión Máxima:1009.900 Hpa    Presión Mínima:1004.400 Hpa


Volver